ARG1406 SAEZ-SAME
Flight info
| Callsign | ARG1406 |
|---|---|
| Flight time | N/A |
| Altitude | 32000 |
| Route | URINO UL405 PAPIR |
| Aircraft | B737/M-SDFGRWY/S |
Departure
| Time | N/A |
|---|---|
| Airport | Ezeiza International Airport - Ministro Pistarini (SAEZ) |
Arrival
| Time | 2026-04-24 16:10 |
|---|---|
| Airport | Governor Francisco Gabrielli International Airport (SAME) |
| Time | Latitude | Longitude | Altitude | Speed | Heading |
|---|---|---|---|---|---|
| 2026-04-24 15:47 | -33.28502 | -67.14876 | 32262 ft | 374 kts | 285° |
| 2026-04-24 15:47 | -33.27759 | -67.17845 | 31755 ft | 370 kts | 284° |
| 2026-04-24 15:48 | -33.27018 | -67.20802 | 31234 ft | 366 kts | 285° |
| 2026-04-24 15:48 | -33.26278 | -67.23753 | 30741 ft | 362 kts | 285° |
| 2026-04-24 15:48 | -33.25550 | -67.26634 | 30245 ft | 359 kts | 285° |
| 2026-04-24 15:48 | -33.24788 | -67.29456 | 29737 ft | 356 kts | 287° |
| 2026-04-24 15:49 | -33.23986 | -67.32282 | 29234 ft | 354 kts | 287° |
| 2026-04-24 15:49 | -33.23169 | -67.35123 | 28725 ft | 359 kts | 287° |
| 2026-04-24 15:49 | -33.22358 | -67.37943 | 28215 ft | 358 kts | 287° |
| 2026-04-24 15:49 | -33.21540 | -67.40784 | 27706 ft | 354 kts | 287° |
| 2026-04-24 15:50 | -33.20733 | -67.43597 | 27210 ft | 350 kts | 287° |
| 2026-04-24 15:50 | -33.19960 | -67.46300 | 26731 ft | 346 kts | 286° |
| 2026-04-24 15:50 | -33.19159 | -67.49094 | 26243 ft | 343 kts | 287° |
| 2026-04-24 15:50 | -33.18389 | -67.51786 | 25761 ft | 339 kts | 286° |
| 2026-04-24 15:51 | -33.17618 | -67.54485 | 25280 ft | 337 kts | 286° |
| 2026-04-24 15:51 | -33.16850 | -67.57179 | 24802 ft | 343 kts | 287° |
| 2026-04-24 15:51 | -33.16071 | -67.59905 | 24300 ft | 342 kts | 286° |
| 2026-04-24 15:51 | -33.15291 | -67.62633 | 23824 ft | 338 kts | 286° |
| 2026-04-24 15:52 | -33.14531 | -67.65288 | 23355 ft | 333 kts | 287° |
| 2026-04-24 15:52 | -33.14021 | -67.67069 | 23044 ft | 331 kts | 287° |
| 2026-04-24 15:53 | -33.13599 | -67.68539 | 22782 ft | 329 kts | 287° |
| 2026-04-24 15:53 | -33.13505 | -67.68866 | 22724 ft | 329 kts | 287° |
| 2026-04-24 15:53 | -33.13349 | -67.69407 | 22625 ft | 328 kts | 287° |
| 2026-04-24 15:53 | -33.12607 | -67.71993 | 22172 ft | 325 kts | 288° |
| 2026-04-24 15:54 | -33.11948 | -67.74595 | 21712 ft | 325 kts | 283° |
| 2026-04-24 15:54 | -33.11518 | -67.77309 | 21236 ft | 333 kts | 278° |
| 2026-04-24 15:54 | -33.11267 | -67.80066 | 20763 ft | 332 kts | 275° |
| 2026-04-24 15:54 | -33.11082 | -67.82842 | 20293 ft | 329 kts | 275° |
| 2026-04-24 15:55 | -33.10916 | -67.85537 | 19831 ft | 326 kts | 275° |
| 2026-04-24 15:55 | -33.10743 | -67.88236 | 19370 ft | 323 kts | 275° |
| 2026-04-24 15:55 | -33.10563 | -67.90924 | 18914 ft | 321 kts | 275° |
| 2026-04-24 15:55 | -33.10378 | -67.93613 | 18451 ft | 319 kts | 275° |
| 2026-04-24 15:56 | -33.10191 | -67.96272 | 17998 ft | 323 kts | 276° |
| 2026-04-24 15:56 | -33.09996 | -67.98985 | 17536 ft | 327 kts | 276° |
| 2026-04-24 15:56 | -33.09797 | -68.01726 | 17062 ft | 325 kts | 276° |
| 2026-04-24 15:56 | -33.09735 | -68.02599 | 16911 ft | 324 kts | 276° |
| 2026-04-24 15:57 | -33.09411 | -68.07071 | 16138 ft | 320 kts | 276° |
| 2026-04-24 15:57 | -33.09216 | -68.09763 | 15680 ft | 318 kts | 276° |
| 2026-04-24 15:57 | -33.09024 | -68.12394 | 15227 ft | 317 kts | 276° |
| 2026-04-24 15:57 | -33.08826 | -68.15083 | 14762 ft | 315 kts | 276° |
| 2026-04-24 15:58 | -33.08630 | -68.17745 | 14305 ft | 313 kts | 276° |
| 2026-04-24 15:58 | -33.08438 | -68.20342 | 13860 ft | 312 kts | 275° |
| 2026-04-24 15:58 | -33.08246 | -68.22934 | 13411 ft | 311 kts | 275° |
| 2026-04-24 15:58 | -33.08051 | -68.25552 | 12967 ft | 309 kts | 276° |
| 2026-04-24 15:59 | -33.07862 | -68.28112 | 12520 ft | 308 kts | 275° |
| 2026-04-24 15:59 | -33.07669 | -68.30712 | 12071 ft | 307 kts | 275° |
| 2026-04-24 15:59 | -33.07477 | -68.33291 | 11624 ft | 306 kts | 276° |
| 2026-04-24 15:59 | -33.07288 | -68.35818 | 11199 ft | 305 kts | 276° |
| 2026-04-24 16:00 | -33.07093 | -68.38407 | 10751 ft | 305 kts | 276° |
| 2026-04-24 16:00 | -33.06903 | -68.40916 | 10365 ft | 302 kts | 276° |
| 2026-04-24 16:00 | -33.06716 | -68.43389 | 10203 ft | 291 kts | 276° |
| 2026-04-24 16:00 | -33.06533 | -68.45789 | 9997 ft | 283 kts | 276° |
| 2026-04-24 16:01 | -33.06350 | -68.48179 | 9594 ft | 283 kts | 276° |
| 2026-04-24 16:01 | -33.06172 | -68.50503 | 9233 ft | 282 kts | 276° |
| 2026-04-24 16:01 | -33.05990 | -68.52872 | 8902 ft | 280 kts | 276° |
| 2026-04-24 16:01 | -33.05815 | -68.55167 | 8759 ft | 270 kts | 276° |
| 2026-04-24 16:02 | -33.05647 | -68.57352 | 8693 ft | 257 kts | 276° |
| 2026-04-24 16:02 | -33.05487 | -68.59461 | 8618 ft | 246 kts | 276° |
| 2026-04-24 16:02 | -33.05333 | -68.61475 | 8528 ft | 236 kts | 275° |
| 2026-04-24 16:02 | -33.05247 | -68.63430 | 8300 ft | 234 kts | 272° |
| 2026-04-24 16:03 | -33.05240 | -68.65365 | 8017 ft | 233 kts | 271° |
| 2026-04-24 16:03 | -33.05247 | -68.67335 | 7760 ft | 230 kts | 271° |
| 2026-04-24 16:03 | -33.05237 | -68.69246 | 7513 ft | 228 kts | 271° |
| 2026-04-24 16:03 | -33.05216 | -68.71171 | 7253 ft | 226 kts | 271° |
| 2026-04-24 16:04 | -33.05196 | -68.73053 | 7010 ft | 224 kts | 271° |
| 2026-04-24 16:04 | -33.05177 | -68.74918 | 6787 ft | 219 kts | 271° |
| 2026-04-24 16:04 | -33.05122 | -68.76729 | 6582 ft | 211 kts | 277° |
| 2026-04-24 16:04 | -33.04662 | -68.78352 | 6362 ft | 204 kts | 308° |
| 2026-04-24 16:05 | -33.02143 | -68.79468 | 5752 ft | 197 kts | 1° |
| 2026-04-24 16:05 | -33.00771 | -68.79490 | 5480 ft | 194 kts | 0° |
| 2026-04-24 16:06 | -32.98218 | -68.79501 | 4979 ft | 165 kts | 2° |
| 2026-04-24 16:06 | -32.97844 | -68.79495 | 4904 ft | 160 kts | 1° |
| 2026-04-24 16:06 | -32.95093 | -68.79462 | 4380 ft | 144 kts | 1° |
| 2026-04-24 16:07 | -32.94076 | -68.79455 | 4176 ft | 145 kts | 1° |
| 2026-04-24 16:07 | -32.93045 | -68.79443 | 3973 ft | 145 kts | 2° |
| 2026-04-24 16:07 | -32.91015 | -68.79363 | 3601 ft | 144 kts | 2° |
| 2026-04-24 16:08 | -32.89999 | -68.79356 | 3429 ft | 141 kts | 359° |
| 2026-04-24 16:08 | -32.88001 | -68.79364 | 3040 ft | 143 kts | 2° |
| 2026-04-24 16:09 | -32.85989 | -68.79331 | 2642 ft | 143 kts | 1° |
| 2026-04-24 16:09 | -32.84986 | -68.79312 | 2472 ft | 139 kts | 0° |
| 2026-04-24 16:09 | -32.84014 | -68.79296 | 2326 ft | 128 kts | 360° |
| 2026-04-24 16:09 | -32.83326 | -68.79284 | 2330 ft | 69 kts | 360° |
| 2026-04-24 16:10 | -32.82580 | -68.79279 | 2320 ft | 16 kts | 350° |
| 2026-04-24 16:11 | -32.82551 | -68.79375 | 2320 ft | 5 kts | 252° |
| 2026-04-24 16:11 | -32.82586 | -68.79422 | 2320 ft | 7 kts | 226° |
| 2026-04-24 16:11 | -32.82619 | -68.79461 | 2321 ft | 6 kts | 224° |
| 2026-04-24 16:12 | -32.82672 | -68.79565 | 2322 ft | 9 kts | 249° |
| 2026-04-24 16:12 | -32.82676 | -68.79636 | 2323 ft | 7 kts | 270° |
| 2026-04-24 16:12 | -32.82697 | -68.79702 | 2325 ft | 2 kts | 187° |
| 2026-04-24 16:13 | -32.82719 | -68.79705 | 2325 ft | 4 kts | 199° |
| 2026-04-24 16:13 | -32.82725 | -68.79761 | 2325 ft | 4 kts | 272° |
| 2026-04-24 16:14 | -32.82725 | -68.79771 | 2325 ft | 0 kts | 271° |